Time;durP1;ratioP1;P1;durP2;ratioP2;P2;SDS_P1;SDS_P2;PMS_P1;PMS_P2;Temp;Humidity;BMP_temperature;BMP_pressure;BME280_temperature;BME280_humidity;BME280_pressure;Samples;Min_cycle;Max_cycle;Signal;HPM_P1;HPM_P2
2022/05/07 00:01:44;;;;;;;7.75;5.53;;;;;;;6.90;70.01;97125.34;4993745;28;20026;-64
2022/05/07 00:04:10;;;;;;;7.22;5.20;;;;;;;6.76;70.65;97128.13;4993728;28;20478;-63
2022/05/07 00:06:36;;;;;;;8.43;5.60;;;;;;;6.71;70.63;97124.69;4993833;28;20142;-62
2022/05/07 00:09:02;;;;;;;8.30;5.97;;;;;;;6.70;71.42;97128.19;4993653;28;20026;-62
2022/05/07 00:11:28;;;;;;;9.82;5.25;;;;;;;6.68;71.37;97127.34;4993436;28;20033;-64
2022/05/07 00:13:53;;;;;;;8.90;5.70;;;;;;;6.62;71.02;97125.69;4993584;28;20030;-62
2022/05/07 00:19:03;;;;;;;11.27;5.78;;;;;;;6.53;70.84;97113.66;4993750;28;20081;-64
2022/05/07 00:21:29;;;;;;;8.40;5.82;;;;;;;6.45;70.62;97103.34;4993529;28;20030;-64
2022/05/07 00:23:55;;;;;;;9.32;5.20;;;;;;;6.36;71.24;97110.41;4993543;28;20480;-63
2022/05/07 00:26:21;;;;;;;10.90;5.63;;;;;;;6.34;71.28;97112.16;4993512;28;20058;-62
2022/05/07 00:28:46;;;;;;;12.07;5.53;;;;;;;6.34;71.65;97117.38;4993395;28;20481;-64
2022/05/07 00:31:12;;;;;;;12.77;4.75;;;;;;;6.29;71.80;97112.25;4993379;28;20022;-64
2022/05/07 00:33:38;;;;;;;7.80;4.95;;;;;;;6.29;71.34;97113.09;4993509;28;20053;-63
2022/05/07 00:36:04;;;;;;;10.50;5.35;;;;;;;6.22;70.59;97111.44;4993468;28;20033;-62
2022/05/07 00:38:30;;;;;;;7.68;5.95;;;;;;;6.17;71.68;97113.25;4993413;28;20038;-62
2022/05/07 00:40:56;;;;;;;7.90;5.30;;;;;;;6.21;71.85;97106.25;4993323;28;20384;-63
2022/05/07 00:43:22;;;;;;;8.93;5.38;;;;;;;6.22;71.35;97110.56;4993079;28;20046;-63
2022/05/07 00:45:50;;;;;;;7.82;5.93;;;;;;;6.12;71.51;97109.81;4993365;28;20061;-63
2022/05/07 00:48:16;;;;;;;6.40;5.10;;;;;;;6.06;71.48;97108.16;4993197;28;20037;-63
2022/05/07 00:53:27;;;;;;;6.25;5.00;;;;;;;5.98;71.35;97103.00;4993666;28;20373;-64
2022/05/07 00:55:53;;;;;;;7.20;4.88;;;;;;;5.97;71.76;97096.09;4993278;28;20022;-64
2022/05/07 00:58:19;;;;;;;8.32;5.55;;;;;;;5.99;71.41;97099.53;4996917;28;20037;-63
2022/05/07 01:00:45;;;;;;;5.97;5.28;;;;;;;6.00;71.17;97097.81;4979371;28;20226;-63
2022/05/07 01:03:11;;;;;;;9.02;5.57;;;;;;;5.99;70.99;97099.53;4996920;28;20028;-62
2022/05/07 01:05:36;;;;;;;7.75;5.10;;;;;;;6.02;70.96;97096.91;4996867;28;20019;-63
2022/05/07 01:08:03;;;;;;;8.68;4.97;;;;;;;5.97;71.39;97090.91;4996785;28;20054;-64
2022/05/07 01:10:29;;;;;;;11.27;5.72;;;;;;;5.92;71.55;97096.16;4996647;28;20022;-64
2022/05/07 01:12:55;;;;;;;19.40;10.80;;;;;;;5.78;72.14;97085.88;4996596;28;20029;-63
2022/05/07 01:15:20;;;;;;;10.23;6.32;;;;;;;5.72;73.06;97087.69;4996641;28;20014;-62
2022/05/07 01:17:46;;;;;;;8.73;6.30;;;;;;;5.69;73.08;97086.84;4996721;28;20022;-63
2022/05/07 01:20:14;;;;;;;9.82;5.07;;;;;;;5.67;72.54;97083.44;4996764;28;20030;-62
2022/05/07 01:22:41;;;;;;;9.32;5.35;;;;;;;5.69;72.15;97078.22;4996430;28;20061;-64
2022/05/07 01:25:07;;;;;;;6.97;5.15;;;;;;;5.69;72.08;97075.63;4996585;28;20026;-63
2022/05/07 01:27:33;;;;;;;6.30;5.38;;;;;;;5.61;72.19;97073.09;4996580;28;20026;-64
2022/05/07 01:29:59;;;;;;;8.38;5.63;;;;;;;5.61;72.77;97072.22;4996430;28;20030;-64
2022/05/07 01:32:25;;;;;;;7.45;5.35;;;;;;;5.64;72.63;97077.38;4996391;28;20036;-65
2022/05/07 01:34:53;;;;;;;9.27;5.05;;;;;;;5.61;72.55;97073.09;4996297;28;20026;-64
2022/05/07 01:37:19;;;;;;;12.38;5.72;;;;;;;5.60;72.41;97078.31;4996330;28;20540;-62
2022/05/07 01:39:45;;;;;;;12.40;5.32;;;;;;;5.62;72.73;97068.75;4996370;28;20093;-65
2022/05/07 01:42:10;;;;;;;6.47;5.40;;;;;;;5.56;72.70;97077.44;4996225;28;20105;-64
2022/05/07 01:44:36;;;;;;;7.50;4.80;;;;;;;5.50;72.64;97068.00;4995954;28;20068;-64
2022/05/07 01:49:46;;;;;;;11.07;5.70;;;;;;;5.45;71.60;97064.59;4996411;28;20061;-64
2022/05/07 01:52:11;;;;;;;7.50;4.88;;;;;;;5.44;71.52;97066.31;4995953;28;20461;-63
2022/05/07 01:54:37;;;;;;;6.85;5.32;;;;;;;5.44;72.00;97063.72;4995999;28;20469;-63
2022/05/07 01:57:03;;;;;;;6.88;5.10;;;;;;;5.45;71.47;97059.41;4995943;28;20389;-63
2022/05/07 01:59:28;;;;;;;8.13;4.90;;;;;;;5.43;71.85;97063.75;4995910;28;20519;-65
2022/05/07 02:01:54;;;;;;;11.90;7.57;;;;;;;5.43;71.51;97055.94;4995771;28;20445;-64
2022/05/07 02:04:20;;;;;;;8.55;5.47;;;;;;;5.39;71.51;97055.09;4995888;28;20062;-65
2022/05/07 02:06:45;;;;;;;13.00;5.80;;;;;;;5.20;71.64;97048.38;4978363;28;20093;-64
2022/05/07 02:09:11;;;;;;;7.72;5.80;;;;;;;5.17;72.29;97051.84;4994511;28;20031;-63
2022/05/07 02:11:37;;;;;;;7.57;5.40;;;;;;;5.13;72.22;97047.56;4995546;28;20038;-65
2022/05/07 02:14:02;;;;;;;10.35;5.25;;;;;;;5.11;72.16;97044.97;4995533;28;20023;-63
2022/05/07 02:16:28;;;;;;;8.90;5.25;;;;;;;5.11;71.81;97049.28;4995595;28;20030;-65
2022/05/07 02:18:54;;;;;;;6.10;4.78;;;;;;;5.05;72.27;97047.63;4995451;28;20029;-63
2022/05/07 02:21:19;;;;;;;6.88;5.57;;;;;;;4.97;72.19;97046.81;4995515;28;20026;-63
2022/05/07 02:23:46;;;;;;;7.55;5.22;;;;;;;4.96;72.25;97039.94;4995313;28;20023;-63
2022/05/07 02:26:12;;;;;;;15.43;5.82;;;;;;;4.96;72.75;97047.69;4995427;28;20389;-64
2022/05/07 02:28:37;;;;;;;9.38;5.43;;;;;;;4.91;73.06;97045.13;4995231;28;20030;-64
2022/05/07 02:31:03;;;;;;;11.38;5.63;;;;;;;4.83;73.67;97046.91;4995193;28;20038;-65
2022/05/07 02:33:28;;;;;;;5.82;5.22;;;;;;;4.85;72.63;97046.03;4995227;28;20424;-64
2022/05/07 02:35:54;;;;;;;6.75;4.78;;;;;;;4.84;72.73;97043.47;4995208;28;20022;-63
2022/05/07 02:38:20;;;;;;;10.90;5.80;;;;;;;4.82;72.84;97040.00;4995302;28;20029;-63
2022/05/07 02:43:30;;;;;;;9.18;5.68;;;;;;;4.70;73.61;97028.88;4995192;28;20396;-63
2022/05/07 02:45:55;;;;;;;9.75;5.55;;;;;;;4.68;73.43;97030.59;4994937;28;20039;-65
2022/05/07 02:48:22;;;;;;;9.88;5.22;;;;;;;4.65;74.29;97028.91;4995006;28;20022;-63
2022/05/07 02:50:48;;;;;;;9.80;5.82;;;;;;;4.54;74.37;97030.69;4994768;28;20061;-63
2022/05/07 02:53:13;;;;;;;7.15;5.40;;;;;;;4.55;74.39;97038.44;4994874;28;20050;-64
2022/05/07 02:55:39;;;;;;;7.97;5.35;;;;;;;4.60;74.00;97028.06;4994877;28;20473;-64
2022/05/07 02:58:06;;;;;;;9.68;5.10;;;;;;;4.59;73.93;97033.25;4994753;28;20116;-63
2022/05/07 03:00:32;;;;;;;7.95;5.13;;;;;;;4.53;73.65;97035.00;4994749;28;20026;-64
2022/05/07 03:02:58;;;;;;;9.00;5.18;;;;;;;4.53;73.71;97029.84;4994662;28;20485;-64
2022/05/07 03:05:23;;;;;;;13.00;5.85;;;;;;;4.48;73.68;97033.31;4994707;28;20034;-65
2022/05/07 03:07:49;;;;;;;6.70;4.68;;;;;;;4.43;74.41;97034.19;4994631;28;20029;-65
2022/05/07 03:10:15;;;;;;;10.35;5.28;;;;;;;4.48;74.40;97026.41;4994421;28;20030;-62
2022/05/07 03:12:41;;;;;;;6.68;5.13;;;;;;;4.54;74.28;97028.94;4994527;28;20025;-62
2022/05/07 03:15:07;;;;;;;5.95;5.22;;;;;;;4.54;74.10;97028.09;4994517;28;20037;-65
2022/05/07 03:17:34;;;;;;;6.63;5.53;;;;;;;4.58;74.13;97039.31;4994450;28;20084;-63
2022/05/07 03:20:03;;;;;;;11.90;5.05;;;;;;;4.64;74.39;97027.16;4994080;28;20416;-62
2022/05/07 03:22:28;;;;;;;7.18;5.20;;;;;;;4.67;74.13;97032.31;4994280;28;20404;-64
2022/05/07 03:24:54;;;;;;;7.85;5.53;;;;;;;4.70;74.56;97035.78;4994424;28;20034;-65
2022/05/07 03:27:19;;;;;;;7.45;5.20;;;;;;;4.77;74.31;97034.84;4994360;28;20023;-64
2022/05/07 03:29:45;;;;;;;10.07;5.32;;;;;;;4.86;73.80;97036.53;4994170;28;20026;-65
2022/05/07 03:32:11;;;;;;;8.57;4.70;;;;;;;4.87;73.83;97027.88;4994191;28;20026;-65
2022/05/07 03:34:37;;;;;;;6.18;4.82;;;;;;;4.83;73.52;97033.94;4994157;28;20485;-62
2022/05/07 03:37:02;;;;;;;7.22;4.78;;;;;;;4.78;74.00;97037.44;4994054;28;20084;-63
2022/05/07 03:39:30;;;;;;;9.15;4.90;;;;;;;4.82;73.95;97035.69;4994088;28;20026;-65
2022/05/07 03:41:56;;;;;;;8.13;4.90;;;;;;;4.89;74.47;97033.91;4994040;28;20495;-62
2022/05/07 03:44:22;;;;;;;5.55;4.45;;;;;;;5.05;74.10;97045.03;4993757;28;20129;-65
2022/05/07 03:46:48;;;;;;;11.98;5.07;;;;;;;5.33;74.05;97049.13;4993871;28;20057;-65
2022/05/07 03:49:14;;;;;;;5.95;4.70;;;;;;;5.75;72.96;97049.56;4993832;28;20058;-63
2022/05/07 03:54:27;;;;;;;6.53;4.78;;;;;;;6.76;70.45;97047.50;4994294;28;20037;-65
2022/05/07 03:56:52;;;;;;;5.45;4.43;;;;;;;7.22;69.03;97042.47;4993759;28;20062;-64
2022/05/07 03:59:19;;;;;;;5.07;3.85;;;;;;;7.71;66.97;97045.09;4993745;28;20027;-63
2022/05/07 04:01:45;;;;;;;6.63;4.28;;;;;;;8.10;65.06;97049.59;4993721;28;20026;-64
2022/05/07 04:04:11;;;;;;;6.25;4.25;;;;;;;8.51;63.56;97062.63;4993740;28;20065;-65
2022/05/07 04:06:37;;;;;;;8.20;4.55;;;;;;;8.90;63.31;97058.34;4993678;28;20018;-63
2022/05/07 04:09:06;;;;;;;5.05;4.20;;;;;;;9.32;62.11;97059.97;4993636;28;20362;-64
2022/05/07 04:11:32;;;;;;;5.13;3.70;;;;;;;9.73;60.74;97059.81;4993626;28;20048;-64
2022/05/07 04:13:57;;;;;;;5.57;4.35;;;;;;;10.05;60.46;97073.78;4993719;28;20026;-64
2022/05/07 04:16:23;;;;;;;5.72;3.78;;;;;;;10.35;60.05;97070.31;4993636;28;20486;-64
2022/05/07 04:18:49;;;;;;;4.60;3.60;;;;;;;10.82;58.88;97066.38;4993642;28;20063;-64
2022/05/07 04:21:15;;;;;;;4.88;3.55;;;;;;;11.18;57.95;97073.16;4993632;28;20489;-61
2022/05/07 04:23:41;;;;;;;4.78;3.05;;;;;;;11.57;56.76;97071.88;4993534;28;20026;-63
2022/05/07 04:26:06;;;;;;;5.82;3.80;;;;;;;11.91;55.84;97068.09;4976136;28;20030;-64
2022/05/07 04:28:32;;;;;;;6.10;3.63;;;;;;;12.25;55.50;97069.56;4993585;28;20031;-61
2022/05/07 04:30:58;;;;;;;6.00;3.60;;;;;;;12.62;55.26;97069.13;4993642;28;20026;-64
2022/05/07 04:33:26;;;;;;;6.70;3.55;;;;;;;13.01;55.24;97070.25;4997526;28;20025;-64
2022/05/07 04:35:52;;;;;;;4.45;3.63;;;;;;;13.36;54.07;97070.59;4997340;28;20084;-62
2022/05/07 04:38:18;;;;;;;7.03;4.15;;;;;;;13.62;53.56;97071.34;4997380;28;20509;-62
2022/05/07 04:40:44;;;;;;;8.60;3.58;;;;;;;13.96;53.27;97079.56;4997278;28;20142;-63
2022/05/07 04:43:11;;;;;;;12.85;3.83;;;;;;;14.24;52.64;97080.13;4997335;28;20023;-62
2022/05/07 04:45:37;;;;;;;6.07;3.70;;;;;;;14.47;52.80;97080.84;4997295;28;20034;-63
2022/05/07 04:48:07;;;;;;;5.68;3.33;;;;;;;14.71;52.64;97080.66;4997277;28;20034;-64
2022/05/07 04:50:33;;;;;;;5.28;3.78;;;;;;;14.91;52.65;97083.25;4997105;28;20034;-64
2022/05/07 04:52:59;;;;;;;5.07;3.83;;;;;;;15.20;51.08;97087.22;4996993;28;20495;-64
2022/05/07 04:55:25;;;;;;;9.55;3.95;;;;;;;15.42;48.44;97084.41;4997034;28;20030;-64
2022/05/07 04:57:52;;;;;;;7.70;3.92;;;;;;;15.70;47.70;97085.66;4997031;28;20396;-64
2022/05/07 05:00:22;;;;;;;6.32;3.70;;;;;;;15.98;49.86;97083.44;4997093;28;20523;-64
2022/05/07 05:02:48;;;;;;;5.53;4.32;;;;;;;16.25;47.99;97096.13;4996976;28;20033;-63
2022/05/07 05:05:14;;;;;;;4.32;3.75;;;;;;;16.51;49.28;97093.91;4996971;28;20022;-63
2022/05/07 05:07:40;;;;;;;7.57;3.92;;;;;;;16.80;48.23;97094.97;4996873;28;20499;-64
2022/05/07 05:10:07;;;;;;;9.20;4.13;;;;;;;17.05;47.33;97093.63;4996866;28;20034;-64
2022/05/07 05:12:33;;;;;;;6.00;3.97;;;;;;;17.25;47.62;97091.66;4996922;28;20048;-64
2022/05/07 05:15:03;;;;;;;6.47;4.05;;;;;;;17.43;44.92;97095.06;4996699;28;20045;-64
2022/05/07 05:17:31;;;;;;;4.73;3.63;;;;;;;17.67;45.40;97091.13;4996549;28;20126;-62
2022/05/07 05:20:00;;;;;;;8.52;4.55;;;;;;;17.79;46.09;97092.19;4996596;28;20036;-62
2022/05/07 05:22:26;;;;;;;9.60;4.40;;;;;;;17.88;43.83;97094.28;4996629;28;20045;-63
2022/05/07 05:24:53;;;;;;;6.65;4.53;;;;;;;18.07;44.72;97093.19;4996639;28;20027;-62
2022/05/07 05:27:20;;;;;;;6.55;4.13;;;;;;;18.14;45.73;97099.84;4996588;28;20022;-62
2022/05/07 05:29:46;;;;;;;4.78;3.70;;;;;;;18.38;43.73;97107.25;4996358;28;20095;-63
2022/05/07 05:32:17;;;;;;;7.60;3.90;;;;;;;18.47;44.15;97104.97;4996460;28;20420;-63
2022/05/07 05:34:46;;;;;;;7.30;4.07;;;;;;;18.62;42.41;97108.47;4996428;28;20046;-63
2022/05/07 05:37:14;;;;;;;8.43;4.00;;;;;;;18.82;41.48;97112.56;4996192;28;20042;-62
2022/05/07 05:39:40;;;;;;;7.85;4.20;;;;;;;19.00;42.99;97110.53;4996236;28;20117;-63
2022/05/07 05:42:06;;;;;;;6.78;3.90;;;;;;;19.21;41.65;97109.28;4996127;28;20027;-62
2022/05/07 05:44:36;;;;;;;12.90;4.57;;;;;;;19.39;41.46;97110.75;4964652;28;20371;-62
2022/05/07 05:47:03;;;;;;;10.60;4.32;;;;;;;19.56;41.32;97109.66;4940528;29;20374;-62
2022/05/07 05:49:29;;;;;;;6.03;3.90;;;;;;;19.66;40.78;97112.53;4957294;29;20058;-62
2022/05/07 05:51:55;;;;;;;8.13;4.22;;;;;;;19.81;40.46;97117.78;4957160;29;20497;-62
2022/05/07 05:54:21;;;;;;;7.13;4.30;;;;;;;19.67;41.05;97116.03;4957381;29;20113;-62
2022/05/07 05:56:46;;;;;;;5.07;4.00;;;;;;;19.76;40.17;97115.44;4957131;29;20027;-62
2022/05/07 05:59:12;;;;;;;7.28;3.63;;;;;;;19.66;39.83;97112.53;4957272;29;20377;-62
2022/05/07 06:01:38;;;;;;;11.23;3.88;;;;;;;20.13;39.21;97120.09;4957207;29;20401;-63
2022/05/07 06:04:03;;;;;;;5.53;3.60;;;;;;;20.20;39.40;97124.03;4956980;29;20031;-62
2022/05/07 06:06:29;;;;;;;7.75;3.55;;;;;;;20.37;38.77;97116.72;4957060;29;20031;-62
2022/05/07 06:08:55;;;;;;;5.93;3.65;;;;;;;20.49;38.76;97125.66;4957091;29;20425;-61
2022/05/07 06:11:21;;;;;;;8.85;4.50;;;;;;;20.87;38.33;97120.41;4956863;28;20050;-61
2022/05/07 06:13:47;;;;;;;7.25;3.58;;;;;;;21.25;37.05;97124.81;4956894;29;20501;-63
2022/05/07 06:16:14;;;;;;;7.60;3.80;;;;;;;21.37;36.81;97132.88;4956815;29;20086;-62
2022/05/07 06:18:40;;;;;;;7.05;4.22;;;;;;;21.57;37.28;97126.94;4956961;29;20054;-62
2022/05/07 06:21:06;;;;;;;8.88;4.03;;;;;;;21.73;37.26;97130.28;4956814;29;20062;-61
2022/05/07 06:23:32;;;;;;;7.32;4.13;;;;;;;21.62;37.48;97125.75;4956785;29;20054;-62
2022/05/07 06:28:41;;;;;;;6.80;3.72;;;;;;;21.92;36.91;97122.66;4956798;29;20038;-62
2022/05/07 06:31:09;;;;;;;7.50;4.30;;;;;;;22.00;36.60;97122.03;4956494;29;20035;-63
2022/05/07 06:33:38;;;;;;;9.50;4.20;;;;;;;21.87;36.89;97122.13;4956653;29;20157;-62
2022/05/07 06:36:06;;;;;;;5.00;4.50;;;;;;;21.50;36.83;97111.53;4956564;29;20398;-62
2022/05/07 06:38:31;;;;;;;8.20;4.82;;;;;;;21.59;38.75;97122.34;4956503;29;20027;-61
2022/05/07 06:41:02;;;;;;;9.88;5.15;;;;;;;21.58;38.22;97122.44;4956435;29;20023;-60
2022/05/07 06:43:29;;;;;;;6.35;5.13;;;;;;;21.52;38.46;97120.25;4960132;28;20023;-62
2022/05/07 06:45:55;;;;;;;8.80;4.60;;;;;;;21.35;37.19;97125.00;4994992;28;20030;-61
2022/05/07 06:48:21;;;;;;;8.35;5.07;;;;;;;21.34;37.88;97123.28;4995039;28;20362;-62
2022/05/07 06:50:46;;;;;;;10.18;5.10;;;;;;;20.90;37.13;97114.91;4994948;28;20085;-62
2022/05/07 06:53:12;;;;;;;5.05;4.30;;;;;;;20.13;38.11;97121.91;4994945;28;20031;-62
2022/05/07 06:55:54;;;;;;;8.73;4.30;;;;;;;19.93;38.83;97116.13;4994205;28;20086;-62
2022/05/07 06:58:34;;;;;;;10.18;4.18;;;;;;;19.78;40.89;97123.31;4994890;28;20491;-62
2022/05/07 07:01:01;;;;;;;4.60;4.15;;;;;;;19.64;39.94;97125.06;4994976;28;20137;-63
2022/05/07 07:03:31;;;;;;;5.65;4.28;;;;;;;19.28;39.82;97131.81;4994632;28;20030;-61
2022/05/07 07:05:58;;;;;;;5.43;4.53;;;;;;;18.83;40.29;97127.50;4994689;28;20037;-61
2022/05/07 07:08:24;;;;;;;7.38;4.45;;;;;;;18.58;41.31;97130.81;4994378;28;20026;-61
2022/05/07 07:10:50;;;;;;;11.15;4.13;;;;;;;18.79;40.52;97136.59;4994621;28;20381;-62
2022/05/07 07:13:16;;;;;;;6.68;4.30;;;;;;;18.77;41.20;97133.19;4994667;28;20022;-61
2022/05/07 07:15:45;;;;;;;4.75;4.05;;;;;;;18.61;41.62;97136.78;4994393;28;20536;-63
2022/05/07 07:18:11;;;;;;;8.38;4.28;;;;;;;18.41;40.75;97132.69;4994392;28;20088;-62
2022/05/07 07:20:49;;;;;;;8.82;4.38;;;;;;;18.26;43.65;97134.47;4994388;28;20022;-62
2022/05/07 07:23:15;;;;;;;10.18;4.90;;;;;;;18.31;41.61;97129.75;4994464;28;20066;-62
2022/05/07 07:25:42;;;;;;;9.32;4.45;;;;;;;18.39;42.96;97131.94;4994336;28;20069;-60
2022/05/07 07:28:09;;;;;;;5.45;4.25;;;;;;;18.44;43.27;97136.00;4976753;28;20034;-63
2022/05/07 07:30:36;;;;;;;6.97;4.30;;;;;;;18.65;44.69;97137.44;4994078;28;20465;-61
2022/05/07 07:33:03;;;;;;;5.82;4.20;;;;;;;19.15;43.16;97137.06;4994066;28;20026;-63
2022/05/07 07:35:28;;;;;;;4.47;3.75;;;;;;;19.25;40.78;97134.66;4994127;28;20022;-62
2022/05/07 07:37:54;;;;;;;8.40;3.95;;;;;;;19.49;42.33;97137.53;4994062;28;20029;-61
2022/05/07 07:40:20;;;;;;;9.88;3.63;;;;;;;19.24;40.51;97138.25;4994030;28;20035;-62
2022/05/07 07:42:46;;;;;;;5.68;3.50;;;;;;;19.36;37.98;97137.50;4993984;28;20054;-62
2022/05/07 07:48:03;;;;;;;5.57;3.75;;;;;;;18.90;41.47;97122.69;4994278;28;20089;-62
2022/05/07 07:50:34;;;;;;;4.88;4.32;;;;;;;18.66;40.44;97141.81;4993845;28;20030;-63
2022/05/07 07:53:03;;;;;;;6.38;4.40;;;;;;;18.84;41.60;97133.66;4993880;28;20027;-63
2022/05/07 07:55:30;;;;;;;7.97;4.20;;;;;;;18.47;39.68;97139.41;4993866;28;20485;-62
2022/05/07 07:57:58;;;;;;;9.15;3.97;;;;;;;18.39;40.95;97138.06;4993851;28;20026;-63
2022/05/07 08:00:24;;;;;;;8.02;3.88;;;;;;;18.76;40.75;97142.94;4993892;28;20041;-61
2022/05/07 08:02:54;;;;;;;6.38;4.32;;;;;;;18.35;41.90;97146.28;4993834;28;20105;-62
2022/05/07 08:05:41;;;;;;;8.43;4.33;;;;;;;17.61;42.21;97141.72;4993801;28;20030;-62
2022/05/07 08:13:39;;;;;;;5.15;3.63;;;;;;;17.00;45.81;97145.88;4994001;28;20117;-61
2022/05/07 08:16:11;;;;;;;6.88;4.30;;;;;;;17.47;43.69;97140.72;4993553;28;20046;-61
2022/05/07 08:18:38;;;;;;;5.32;3.50;;;;;;;17.66;43.72;97139.66;4993574;28;20076;-62
2022/05/07 08:21:05;;;;;;;9.65;4.00;;;;;;;17.38;43.55;97149.16;4993381;28;20056;-62
2022/05/07 08:23:32;;;;;;;4.85;3.97;;;;;;;17.35;44.63;97144.03;4993466;28;20018;-64
2022/05/07 08:25:58;;;;;;;8.93;4.07;;;;;;;17.66;42.82;97142.28;4993449;28;20026;-62
2022/05/07 08:28:25;;;;;;;10.60;4.45;;;;;;;17.93;45.05;97147.78;4993581;28;20037;-64
2022/05/07 08:30:53;;;;;;;5.07;3.60;;;;;;;17.61;43.94;97141.72;4993412;28;20038;-61
2022/05/07 08:33:20;;;;;;;7.22;3.92;;;;;;;17.13;45.63;97153.16;4993346;28;20034;-62
2022/05/07 08:35:47;;;;;;;5.55;4.30;;;;;;;16.94;46.90;97146.19;4993396;28;20060;-63
2022/05/07 08:38:12;;;;;;;10.32;4.53;;;;;;;17.16;45.53;97137.16;4993538;28;20033;-63
2022/05/07 08:40:42;;;;;;;4.80;3.75;;;;;;;17.18;45.52;97151.09;4993548;28;20027;-63
2022/05/07 08:43:08;;;;;;;5.85;3.97;;;;;;;16.98;44.95;97139.81;4993417;28;20026;-63
2022/05/07 08:45:36;;;;;;;6.93;4.18;;;;;;;17.59;45.52;97143.59;4993173;28;20058;-61
2022/05/07 08:48:02;;;;;;;6.75;3.40;;;;;;;18.20;43.58;97156.88;4993198;28;20039;-61
2022/05/07 08:50:28;;;;;;;7.63;4.00;;;;;;;18.44;42.01;97143.09;4993334;28;20029;-64
2022/05/07 08:52:54;;;;;;;6.05;3.85;;;;;;;18.92;41.94;97155.22;4993336;28;20473;-62
2022/05/07 08:55:21;;;;;;;15.27;4.10;;;;;;;18.57;40.60;97159.09;4993306;28;20130;-64
2022/05/07 08:57:49;;;;;;;11.57;4.05;;;;;;;18.56;40.71;97160.91;4993267;28;20142;-64
2022/05/07 09:00:18;;;;;;;7.10;4.05;;;;;;;17.99;40.31;97149.22;4993348;28;20026;-62
2022/05/07 09:02:48;;;;;;;11.45;3.78;;;;;;;17.83;41.83;97140.47;4993396;28;20485;-62
2022/05/07 09:05:16;;;;;;;6.83;3.63;;;;;;;17.95;40.55;97131.81;4993227;28;20030;-63
2022/05/07 09:08:03;;;;;;;11.45;3.70;;;;;;;17.91;39.25;97135.59;4993174;28;20061;-62
2022/05/07 09:10:34;;;;;;;11.73;3.85;;;;;;;17.80;39.50;97145.03;4993144;28;20035;-62
2022/05/07 09:13:17;;;;;;;6.88;3.33;;;;;;;17.76;40.68;97137.34;4993276;28;20096;-63
2022/05/07 09:15:49;;;;;;;6.93;3.05;;;;;;;18.16;38.31;97128.88;4993275;28;20031;-62
2022/05/07 09:18:18;;;;;;;6.40;3.72;;;;;;;18.64;37.92;97133.94;4995158;28;20040;-64
2022/05/07 09:20:44;;;;;;;9.15;3.20;;;;;;;18.84;36.19;97131.00;4996609;28;20026;-65
2022/05/07 09:23:11;;;;;;;9.02;3.75;;;;;;;18.93;35.09;97128.63;4996642;28;20027;-63
2022/05/07 09:25:49;;;;;;;6.03;3.35;;;;;;;18.97;34.68;97133.72;4996484;28;20504;-64
2022/05/07 09:28:26;;;;;;;4.53;3.58;;;;;;;18.76;36.87;97136.78;4996495;28;20085;-63
2022/05/07 09:30:57;;;;;;;8.52;3.28;;;;;;;18.59;36.32;97133.38;4996001;28;20045;-63
2022/05/07 09:33:33;;;;;;;;;;;;;;;18.38;35.74;97132.88;4996489;28;20026;-63
2022/05/07 09:36:10;;;;;;;7.03;3.05;;;;;;;18.32;37.39;97131.44;4996384;28;19968;-61
2022/05/07 09:38:37;;;;;;;9.40;3.33;;;;;;;18.34;38.48;97124.28;4996244;28;20030;-64
2022/05/07 09:41:04;;;;;;;16.35;3.88;;;;;;;18.44;35.17;97122.78;4996176;28;20064;-62
2022/05/07 09:43:31;;;;;;;8.27;3.67;;;;;;;18.58;35.96;97125.50;4996139;28;20042;-63
2022/05/07 09:45:57;;;;;;;4.82;3.25;;;;;;;18.54;37.23;97125.69;4996262;28;20041;-62
2022/05/07 09:48:24;;;;;;;6.70;2.95;;;;;;;18.49;33.37;97133.09;4996152;28;20038;-63
2022/05/07 09:50:51;;;;;;;8.32;3.60;;;;;;;18.52;34.67;97127.59;4996056;28;20072;-64
2022/05/07 09:58:50;;;;;;;8.98;3.55;;;;;;;19.11;33.27;97106.38;4976817;28;20085;-62
2022/05/07 10:01:42;;;;;;;6.00;3.40;;;;;;;18.79;33.66;97112.75;4976447;28;20051;-63
2022/05/07 10:04:22;;;;;;;5.88;3.42;;;;;;;18.45;33.60;97110.38;4967397;28;20401;-62
2022/05/07 10:07:20;;;;;;;11.45;3.40;;;;;;;18.75;38.90;97098.00;4995891;28;20037;-61
2022/05/07 10:09:55;;;;;;;7.82;4.00;;;;;;;19.00;36.75;97107.03;4995731;28;20121;-62
2022/05/07 10:12:24;;;;;;;6.97;3.33;;;;;;;18.78;34.48;97090.69;4995722;28;20030;-62
2022/05/07 10:14:50;;;;;;;8.90;3.80;;;;;;;18.57;35.75;97100.81;4995779;28;20073;-62
2022/05/07 10:17:20;;;;;;;10.27;3.67;;;;;;;18.80;36.10;97091.44;4995772;28;20060;-62
2022/05/07 10:19:47;;;;;;;;;;;;;;;19.06;34.91;97088.09;4996094;28;20030;-61
2022/05/07 10:22:26;;;;;;;7.72;3.67;;;;;;;18.98;34.94;97090.38;4995562;28;19918;-62
2022/05/07 10:25:12;;;;;;;7.30;3.78;;;;;;;19.06;35.23;97090.75;4995576;28;20034;-62
2022/05/07 10:27:44;;;;;;;5.85;3.45;;;;;;;18.78;36.09;97089.84;4995535;28;20038;-62
2022/05/07 10:30:14;;;;;;;7.07;4.45;;;;;;;18.52;37.47;97087.00;4994246;28;20374;-62
2022/05/07 10:33:01;;;;;;;8.27;3.67;;;;;;;18.72;38.43;97085.75;4995274;28;20056;-62
2022/05/07 10:35:40;;;;;;;8.50;3.45;;;;;;;18.87;37.05;97072.50;4995237;28;20481;-62
2022/05/07 10:38:08;;;;;;;5.43;3.67;;;;;;;18.93;35.24;97080.06;4995350;28;20058;-62
2022/05/07 10:40:35;;;;;;;5.70;3.95;;;;;;;18.40;36.43;97085.97;4995244;28;20076;-62
2022/05/07 10:43:03;;;;;;;4.97;3.45;;;;;;;18.43;38.48;97076.03;4994193;28;20108;-62
2022/05/07 10:45:41;;;;;;;4.60;3.25;;;;;;;18.34;37.39;97067.81;4994835;28;20137;-62
2022/05/07 10:48:19;;;;;;;5.03;3.47;;;;;;;18.17;35.36;97070.53;4995054;28;20045;-62
2022/05/07 10:50:57;;;;;;;8.75;3.90;;;;;;;18.22;34.89;97069.41;4991674;28;20037;-62
2022/05/07 10:53:22;;;;;;;8.18;3.70;;;;;;;17.93;33.87;97065.75;4975523;28;20393;-62
2022/05/07 10:55:52;;;;;;;5.57;3.60;;;;;;;17.88;35.15;97064.34;4975402;28;20034;-62
2022/05/07 10:58:30;;;;;;;6.80;4.43;;;;;;;17.74;35.42;97071.28;4975429;28;20034;-62
2022/05/07 11:00:58;;;;;;;8.60;4.03;;;;;;;17.93;35.71;97064.88;4991051;28;20053;-62
2022/05/07 11:03:29;;;;;;;5.55;3.88;;;;;;;18.16;34.92;97062.69;4994695;28;20029;-62
2022/05/07 11:06:02;;;;;;;6.55;4.78;;;;;;;18.30;32.73;97068.00;4994446;28;20492;-62
2022/05/07 11:08:49;;;;;;;5.22;4.13;;;;;;;18.33;37.10;97064.28;4922053;29;20083;-62
2022/05/07 11:11:16;;;;;;;8.15;4.25;;;;;;;18.35;33.12;97066.84;4915503;29;20124;-62
2022/05/07 11:13:49;;;;;;;6.60;4.22;;;;;;;18.39;34.10;97057.81;4915695;29;20475;-62
2022/05/07 11:16:20;;;;;;;11.35;4.38;;;;;;;18.54;32.09;97061.25;4915587;29;20059;-62
2022/05/07 11:18:52;;;;;;;9.00;4.32;;;;;;;18.74;34.31;97053.88;4915552;29;20048;-62
2022/05/07 11:21:24;;;;;;;6.20;4.68;;;;;;;18.75;33.41;97050.28;4915575;29;20064;-62
2022/05/07 11:24:01;;;;;;;9.25;4.25;;;;;;;19.03;32.67;97053.81;4915475;29;20123;-62
2022/05/07 11:26:28;;;;;;;7.18;4.07;;;;;;;19.20;31.56;97052.75;4915384;29;20032;-62
2022/05/07 11:28:55;;;;;;;8.25;4.10;;;;;;;19.06;30.86;97049.16;4915371;29;20526;-62
2022/05/07 11:31:34;;;;;;;6.93;4.20;;;;;;;18.90;31.25;97044.00;4915193;29;20028;-62
2022/05/07 11:34:08;;;;;;;9.63;3.95;;;;;;;18.73;30.70;97061.00;4915203;29;20059;-62
2022/05/07 11:36:35;;;;;;;5.97;4.35;;;;;;;18.39;30.39;97048.03;4915272;29;20035;-62
2022/05/07 11:39:04;;;;;;;7.38;3.60;;;;;;;18.70;32.90;97047.94;4928450;28;20043;-62
2022/05/07 11:41:30;;;;;;;9.13;4.00;;;;;;;19.00;33.56;97046.94;4957087;28;20065;-62
2022/05/07 11:46:57;;;;;;;11.98;3.95;;;;;;;19.38;31.62;97049.88;4993008;28;20141;-62
2022/05/07 11:49:35;;;;;;;8.32;3.92;;;;;;;18.78;31.20;97048.28;4993775;28;20113;-66
2022/05/07 11:52:27;;;;;;;8.18;3.70;;;;;;;18.78;31.60;97053.59;4993874;28;20109;-62
2022/05/07 11:54:53;;;;;;;7.05;3.55;;;;;;;18.66;32.28;97049.06;4993828;28;20068;-62
2022/05/07 11:57:33;;;;;;;5.95;3.20;;;;;;;18.34;33.72;97055.44;4993845;28;20417;-63
2022/05/07 12:00:26;;;;;;;5.78;3.90;;;;;;;18.01;33.99;97046.78;4993793;28;20034;-62
2022/05/07 12:02:56;;;;;;;8.82;3.35;;;;;;;18.00;34.38;97034.47;4993897;28;20432;-62
2022/05/07 12:05:25;;;;;;;7.60;3.95;;;;;;;18.09;33.61;97037.50;4993767;28;20033;-61
2022/05/07 12:07:52;;;;;;;6.43;3.38;;;;;;;18.13;35.75;97039.06;4993610;28;20084;-62
2022/05/07 12:10:20;;;;;;;4.88;3.35;;;;;;;18.13;35.68;97042.56;4993695;28;20404;-62
2022/05/07 12:12:47;;;;;;;6.93;3.60;;;;;;;18.18;35.33;97037.81;4993689;28;20018;-62
2022/05/07 12:15:13;;;;;;;9.98;3.50;;;;;;;18.18;35.36;97031.66;4993741;28;20033;-62